createdAt,value
2016-12-31T00:00:58.354Z,0
2016-12-31T00:02:07.060Z,0
2016-12-31T00:03:15.760Z,0
2016-12-31T00:04:24.459Z,0
2016-12-31T00:05:33.164Z,0
2016-12-31T00:06:41.863Z,0
2016-12-31T00:07:50.567Z,0
2016-12-31T00:08:59.272Z,0
2016-12-31T00:10:07.973Z,0
2016-12-31T00:11:16.672Z,0
2016-12-31T00:12:25.375Z,0
2016-12-31T00:13:34.083Z,0
2016-12-31T00:14:42.788Z,0
2016-12-31T00:15:51.489Z,0
2016-12-31T00:17:00.190Z,0
2016-12-31T00:18:08.894Z,0
2016-12-31T00:19:17.596Z,0
2016-12-31T00:20:26.296Z,0
2016-12-31T00:21:34.995Z,0
2016-12-31T00:22:43.695Z,0
2016-12-31T00:23:52.396Z,0
2016-12-31T00:25:01.095Z,0
2016-12-31T00:26:09.802Z,0
2016-12-31T00:27:18.502Z,0
2016-12-31T00:28:27.200Z,0
2016-12-31T00:29:35.896Z,0
2016-12-31T00:30:44.596Z,0
2016-12-31T00:31:53.300Z,0
2016-12-31T00:33:02.003Z,0
2016-12-31T00:34:10.707Z,0
2016-12-31T00:35:19.407Z,0
2016-12-31T00:36:28.107Z,0
2016-12-31T00:37:36.804Z,0
2016-12-31T00:38:45.503Z,0
2016-12-31T00:39:54.203Z,0
2016-12-31T00:41:02.926Z,0
2016-12-31T00:42:11.631Z,0
2016-12-31T00:43:20.331Z,0
2016-12-31T00:44:29.033Z,0
2016-12-31T00:45:37.737Z,0
2016-12-31T00:46:46.440Z,0
2016-12-31T00:47:55.142Z,0
2016-12-31T00:49:03.847Z,0
2016-12-31T00:50:12.548Z,0
2016-12-31T00:51:21.245Z,0
2016-12-31T00:52:29.969Z,0
2016-12-31T00:53:38.667Z,0
2016-12-31T00:54:47.368Z,0
2016-12-31T00:55:56.071Z,0
2016-12-31T00:57:04.774Z,0
2016-12-31T00:58:13.475Z,0
2016-12-31T00:59:22.175Z,0
2016-12-31T01:00:30.887Z,0
2016-12-31T01:01:39.586Z,0
2016-12-31T01:02:48.283Z,0
2016-12-31T01:03:57.337Z,0
2016-12-31T01:05:06.066Z,0
2016-12-31T01:06:14.763Z,0
2016-12-31T01:07:23.462Z,0
2016-12-31T01:08:32.163Z,0
2016-12-31T01:09:40.891Z,0
2016-12-31T01:10:49.595Z,0
2016-12-31T01:11:58.317Z,0
2016-12-31T01:13:07.014Z,0
2016-12-31T01:14:15.714Z,0
2016-12-31T01:15:24.418Z,0
2016-12-31T01:16:33.118Z,0
2016-12-31T01:17:41.814Z,0
2016-12-31T01:18:50.519Z,0
2016-12-31T01:19:59.218Z,0
2016-12-31T01:21:07.924Z,0
2016-12-31T01:22:16.636Z,0
2016-12-31T01:23:25.368Z,0
2016-12-31T01:24:34.065Z,0
2016-12-31T01:25:42.766Z,0
2016-12-31T01:26:51.866Z,0
2016-12-31T01:28:00.563Z,0
2016-12-31T01:29:09.268Z,0
2016-12-31T01:30:17.971Z,0
2016-12-31T01:31:26.667Z,0
2016-12-31T01:32:35.378Z,0
2016-12-31T01:33:44.080Z,0
2016-12-31T01:34:52.780Z,0
2016-12-31T01:36:01.479Z,0
2016-12-31T01:37:10.189Z,0
2016-12-31T01:38:18.893Z,0
2016-12-31T01:39:27.621Z,0
2016-12-31T01:40:36.319Z,0
2016-12-31T01:41:45.024Z,0
2016-12-31T01:42:53.722Z,0
2016-12-31T01:44:02.503Z,0
2016-12-31T01:45:11.205Z,0
2016-12-31T01:46:19.932Z,0
2016-12-31T01:47:28.633Z,0
2016-12-31T01:48:37.332Z,0
2016-12-31T01:49:46.034Z,0
2016-12-31T01:50:54.735Z,0
2016-12-31T01:52:03.435Z,0
2016-12-31T01:53:12.138Z,0
2016-12-31T01:54:20.842Z,0
2016-12-31T01:55:29.589Z,0
2016-12-31T01:56:38.290Z,0
2016-12-31T01:57:46.989Z,0
2016-12-31T01:58:55.691Z,0
2016-12-31T02:00:04.399Z,0
2016-12-31T02:01:13.098Z,0
2016-12-31T02:02:21.799Z,0
2016-12-31T02:03:30.501Z,0
2016-12-31T02:04:39.197Z,0
2016-12-31T02:05:47.899Z,0
2016-12-31T02:06:56.614Z,0
2016-12-31T02:08:05.317Z,0
2016-12-31T02:09:14.013Z,0
2016-12-31T02:10:22.717Z,0
2016-12-31T02:11:31.451Z,0
2016-12-31T02:12:40.149Z,0
2016-12-31T02:13:48.845Z,0
2016-12-31T02:14:57.571Z,0
2016-12-31T02:16:06.271Z,0
2016-12-31T02:17:14.973Z,0
2016-12-31T02:18:23.671Z,0
2016-12-31T02:19:32.381Z,0
2016-12-31T02:20:41.079Z,0
2016-12-31T02:21:49.779Z,0
2016-12-31T02:22:58.476Z,0
2016-12-31T02:24:07.208Z,0
2016-12-31T02:25:15.913Z,0
2016-12-31T02:26:24.616Z,0
2016-12-31T02:27:33.313Z,0
2016-12-31T02:28:42.021Z,0
2016-12-31T02:29:50.725Z,0
2016-12-31T02:30:59.425Z,0
2016-12-31T02:32:08.133Z,0
2016-12-31T02:33:16.831Z,0
2016-12-31T02:34:25.532Z,0
2016-12-31T02:35:34.232Z,0
2016-12-31T02:36:42.932Z,0
2016-12-31T02:37:51.632Z,0
2016-12-31T02:39:00.339Z,0
2016-12-31T02:40:09.050Z,0
2016-12-31T02:41:17.748Z,0
2016-12-31T02:42:26.447Z,0
2016-12-31T02:43:35.174Z,0
2016-12-31T02:44:43.875Z,0
2016-12-31T02:45:52.578Z,0
2016-12-31T02:47:01.280Z,0
2016-12-31T02:48:09.978Z,0
2016-12-31T02:49:18.679Z,0
2016-12-31T02:50:27.378Z,0
2016-12-31T02:51:36.080Z,0
2016-12-31T02:52:44.784Z,0
2016-12-31T02:53:53.486Z,0
2016-12-31T02:55:02.181Z,0
2016-12-31T02:56:10.888Z,0
2016-12-31T02:57:19.586Z,0
2016-12-31T02:58:28.287Z,0
2016-12-31T02:59:36.992Z,0
2016-12-31T03:00:45.726Z,0
2016-12-31T03:01:54.431Z,0
2016-12-31T03:03:03.133Z,0
2016-12-31T03:04:11.930Z,0
2016-12-31T03:05:20.629Z,0
2016-12-31T03:06:29.357Z,0
2016-12-31T03:07:38.062Z,0
2016-12-31T03:08:46.766Z,0
2016-12-31T03:09:55.468Z,0
2016-12-31T03:11:04.168Z,0
2016-12-31T03:12:12.873Z,0
2016-12-31T03:13:21.570Z,0
2016-12-31T03:14:30.267Z,0
2016-12-31T03:15:38.966Z,0
2016-12-31T03:16:47.668Z,0
2016-12-31T03:17:56.369Z,0
2016-12-31T03:19:05.068Z,0
2016-12-31T03:20:13.773Z,0
2016-12-31T03:21:22.474Z,0
2016-12-31T03:22:31.175Z,0
2016-12-31T03:23:39.876Z,0
2016-12-31T03:24:48.578Z,0
2016-12-31T03:25:57.274Z,0
2016-12-31T03:27:05.976Z,0
2016-12-31T03:28:14.680Z,0
2016-12-31T03:29:23.382Z,0
2016-12-31T03:30:32.088Z,0
2016-12-31T03:31:40.792Z,0
2016-12-31T03:32:49.491Z,0
2016-12-31T03:33:58.193Z,0
2016-12-31T03:35:06.895Z,0
2016-12-31T03:36:15.595Z,0
2016-12-31T03:37:24.297Z,0
2016-12-31T03:38:32.995Z,0
2016-12-31T03:39:41.699Z,0
2016-12-31T03:40:50.399Z,0
2016-12-31T03:41:59.100Z,0
2016-12-31T03:43:07.831Z,0
2016-12-31T03:44:16.535Z,0
2016-12-31T03:45:25.234Z,0
2016-12-31T03:46:33.941Z,0
2016-12-31T03:47:42.644Z,0
2016-12-31T03:48:51.345Z,0
2016-12-31T03:50:00.050Z,0
2016-12-31T03:51:08.762Z,0
2016-12-31T03:52:17.466Z,0
2016-12-31T03:53:26.166Z,0
2016-12-31T03:54:34.866Z,0
2016-12-31T03:55:43.569Z,0
2016-12-31T03:56:52.270Z,0
2016-12-31T03:58:00.971Z,0
2016-12-31T03:59:09.683Z,0
2016-12-31T04:00:18.388Z,0
2016-12-31T04:01:27.085Z,0
2016-12-31T04:02:35.782Z,0
2016-12-31T04:03:44.485Z,0
2016-12-31T04:04:53.215Z,0
2016-12-31T04:06:01.914Z,0
2016-12-31T04:07:10.614Z,0
2016-12-31T04:08:19.318Z,0
2016-12-31T04:09:28.013Z,0
2016-12-31T04:10:36.711Z,0
2016-12-31T04:11:45.416Z,0
2016-12-31T04:12:54.117Z,0
2016-12-31T04:14:02.815Z,0
2016-12-31T04:15:11.516Z,0
2016-12-31T04:16:20.213Z,0
2016-12-31T04:17:28.913Z,0
2016-12-31T04:18:37.612Z,0
2016-12-31T04:19:46.317Z,0
2016-12-31T04:20:55.052Z,0
2016-12-31T04:22:03.751Z,0
2016-12-31T04:23:12.453Z,0
2016-12-31T04:24:21.153Z,0
2016-12-31T04:25:29.855Z,0
2016-12-31T04:26:38.551Z,0
2016-12-31T04:27:47.254Z,0
2016-12-31T04:28:55.953Z,0
2016-12-31T04:30:04.653Z,0
2016-12-31T04:31:13.359Z,0
2016-12-31T04:32:22.059Z,0
2016-12-31T04:33:30.761Z,0
2016-12-31T04:34:39.464Z,0
2016-12-31T04:35:48.165Z,0
2016-12-31T04:36:56.877Z,0
2016-12-31T04:38:05.574Z,0
2016-12-31T04:39:14.277Z,0
2016-12-31T04:40:22.980Z,0
2016-12-31T04:41:31.682Z,0
2016-12-31T04:42:40.381Z,0
2016-12-31T04:43:49.080Z,0
2016-12-31T04:44:57.787Z,0
2016-12-31T04:46:06.495Z,0
2016-12-31T04:47:15.217Z,0
2016-12-31T04:48:23.919Z,0
2016-12-31T04:49:32.618Z,0
2016-12-31T04:50:41.324Z,0
2016-12-31T04:51:50.027Z,0
2016-12-31T04:52:58.727Z,0
2016-12-31T04:54:07.435Z,0
2016-12-31T04:55:16.134Z,0
2016-12-31T04:56:24.837Z,0
2016-12-31T04:57:33.537Z,0
2016-12-31T04:58:42.233Z,0
2016-12-31T04:59:50.935Z,0
2016-12-31T05:00:59.636Z,0
2016-12-31T05:02:08.337Z,0
2016-12-31T05:03:17.037Z,0
2016-12-31T05:04:25.768Z,0
2016-12-31T05:05:34.473Z,0
2016-12-31T05:06:43.172Z,0
2016-12-31T05:07:51.907Z,0
2016-12-31T05:09:00.603Z,0
2016-12-31T05:10:09.311Z,0
2016-12-31T05:11:18.012Z,0
2016-12-31T05:12:26.716Z,0
2016-12-31T05:13:35.413Z,0
2016-12-31T05:14:44.115Z,0
2016-12-31T05:15:52.842Z,0
2016-12-31T05:17:01.541Z,0
2016-12-31T05:18:10.242Z,0
2016-12-31T05:19:18.943Z,0
2016-12-31T05:20:27.642Z,0
2016-12-31T05:21:36.352Z,0
2016-12-31T05:22:45.055Z,0
2016-12-31T05:23:53.761Z,0
2016-12-31T05:25:02.462Z,0
2016-12-31T05:26:11.162Z,0
2016-12-31T05:27:19.858Z,0
2016-12-31T05:28:28.558Z,0
2016-12-31T05:29:37.256Z,0
2016-12-31T05:30:45.970Z,0
2016-12-31T05:31:54.670Z,0
2016-12-31T05:33:03.370Z,0
2016-12-31T05:34:12.069Z,0
2016-12-31T05:35:20.771Z,0
2016-12-31T05:36:29.475Z,0
2016-12-31T05:37:38.177Z,0
2016-12-31T05:38:46.874Z,0
2016-12-31T05:39:55.576Z,0
2016-12-31T05:41:04.281Z,0
2016-12-31T05:42:12.978Z,0
2016-12-31T05:43:21.681Z,0
2016-12-31T05:44:30.388Z,0
2016-12-31T05:45:39.090Z,0
2016-12-31T05:46:47.795Z,0
2016-12-31T05:47:56.498Z,0
2016-12-31T05:49:05.198Z,0
2016-12-31T05:50:13.896Z,0
2016-12-31T05:51:22.595Z,0
2016-12-31T05:52:31.298Z,0
2016-12-31T05:53:40.007Z,0
2016-12-31T05:54:48.707Z,0
2016-12-31T05:55:57.404Z,0
2016-12-31T05:57:06.106Z,0
2016-12-31T05:58:14.811Z,0
2016-12-31T05:59:23.536Z,0
2016-12-31T06:00:32.242Z,0
2016-12-31T06:01:40.942Z,0
2016-12-31T06:02:49.658Z,0
2016-12-31T06:03:58.359Z,0
2016-12-31T06:05:07.061Z,0
2016-12-31T06:06:15.758Z,0
2016-12-31T06:07:24.463Z,0
2016-12-31T06:08:33.165Z,0
2016-12-31T06:09:41.863Z,0
2016-12-31T06:10:50.584Z,0
2016-12-31T06:11:59.286Z,0
2016-12-31T06:13:07.986Z,0
2016-12-31T06:14:16.687Z,0
2016-12-31T06:15:25.385Z,0
2016-12-31T06:16:34.084Z,0
2016-12-31T06:17:42.786Z,0
2016-12-31T06:18:51.488Z,0
2016-12-31T06:20:00.207Z,0
2016-12-31T06:21:08.906Z,0
2016-12-31T06:22:17.610Z,0
2016-12-31T06:23:26.314Z,0
2016-12-31T06:24:35.008Z,0
2016-12-31T06:25:43.712Z,0
2016-12-31T06:26:52.418Z,0
2016-12-31T06:28:01.119Z,0
2016-12-31T06:29:09.816Z,0
2016-12-31T06:30:18.518Z,0
2016-12-31T06:31:27.217Z,0
2016-12-31T06:32:35.918Z,0
2016-12-31T06:33:44.617Z,0
2016-12-31T06:34:53.348Z,0
2016-12-31T06:36:02.046Z,0
2016-12-31T06:37:10.747Z,0
2016-12-31T06:38:19.447Z,0
2016-12-31T06:39:28.155Z,0
2016-12-31T06:40:36.883Z,0
2016-12-31T06:41:45.585Z,0
2016-12-31T06:42:54.288Z,0
2016-12-31T06:44:03.386Z,0
2016-12-31T06:45:12.087Z,0
2016-12-31T06:46:20.788Z,0
2016-12-31T06:47:29.488Z,0
2016-12-31T06:48:38.191Z,0
2016-12-31T06:49:46.889Z,0
2016-12-31T06:50:55.988Z,0
2016-12-31T06:52:04.688Z,0
2016-12-31T06:53:13.434Z,0
2016-12-31T06:54:22.133Z,0
2016-12-31T06:55:30.858Z,0
2016-12-31T06:56:39.585Z,0
2016-12-31T06:57:48.286Z,0
2016-12-31T06:58:56.987Z,0
2016-12-31T07:00:05.687Z,0
2016-12-31T07:01:14.397Z,0
2016-12-31T07:02:23.102Z,0
2016-12-31T07:03:31.798Z,0
2016-12-31T07:04:40.501Z,0
2016-12-31T07:05:49.201Z,0
2016-12-31T07:06:57.902Z,0
2016-12-31T07:08:06.601Z,0
2016-12-31T07:09:15.296Z,0
2016-12-31T07:10:24.000Z,0
2016-12-31T07:11:32.703Z,0
2016-12-31T07:12:41.399Z,0
2016-12-31T07:13:50.100Z,0
2016-12-31T07:14:58.797Z,0
2016-12-31T07:16:07.498Z,0
2016-12-31T07:17:16.204Z,0
2016-12-31T07:18:24.900Z,0
2016-12-31T07:19:33.598Z,0
2016-12-31T07:20:42.296Z,0
2016-12-31T07:21:50.992Z,0
2016-12-31T07:22:59.694Z,0
2016-12-31T07:24:08.395Z,0
2016-12-31T07:25:17.093Z,0
2016-12-31T07:26:25.794Z,0
2016-12-31T07:27:34.495Z,0
2016-12-31T07:28:43.195Z,0
2016-12-31T07:29:51.896Z,0
2016-12-31T07:31:00.626Z,0
2016-12-31T07:32:09.325Z,0
2016-12-31T07:33:18.027Z,0
2016-12-31T07:34:26.738Z,0
2016-12-31T07:35:35.443Z,0
2016-12-31T07:36:44.141Z,0
2016-12-31T07:37:52.843Z,0
2016-12-31T07:39:01.547Z,0
2016-12-31T07:40:10.246Z,4
2016-12-31T07:41:18.954Z,4
2016-12-31T07:42:27.682Z,4
2016-12-31T07:43:36.381Z,0
2016-12-31T07:44:45.080Z,4
2016-12-31T07:45:53.785Z,4
2016-12-31T07:47:02.489Z,8
2016-12-31T07:48:11.192Z,4
2016-12-31T07:49:19.889Z,8
2016-12-31T07:50:28.591Z,8
2016-12-31T07:51:37.295Z,8
2016-12-31T07:52:45.994Z,12
2016-12-31T07:53:54.694Z,12
2016-12-31T07:55:03.397Z,12
2016-12-31T07:56:12.098Z,16
2016-12-31T07:57:21.205Z,16
2016-12-31T07:58:29.913Z,20
2016-12-31T07:59:38.610Z,20
2016-12-31T08:00:47.314Z,24
2016-12-31T08:01:56.016Z,24
2016-12-31T08:03:04.722Z,28
2016-12-31T08:04:13.423Z,36
2016-12-31T08:05:22.166Z,36
2016-12-31T08:06:30.863Z,44
2016-12-31T08:07:39.564Z,44
2016-12-31T08:08:48.261Z,52
2016-12-31T08:09:56.958Z,56
2016-12-31T08:11:05.658Z,60
2016-12-31T08:12:14.352Z,64
2016-12-31T08:13:23.053Z,72
2016-12-31T08:14:31.748Z,80
2016-12-31T08:15:40.451Z,84
2016-12-31T08:16:49.152Z,92
2016-12-31T08:17:57.851Z,100
2016-12-31T08:19:06.555Z,104
2016-12-31T08:20:15.284Z,112
2016-12-31T08:21:23.983Z,120
2016-12-31T08:22:32.685Z,128
2016-12-31T08:23:41.381Z,136
2016-12-31T08:24:50.081Z,144
2016-12-31T08:25:58.776Z,152
2016-12-31T08:27:07.482Z,160
2016-12-31T08:28:16.184Z,168
2016-12-31T08:29:24.882Z,176
2016-12-31T08:30:33.583Z,184
2016-12-31T08:31:42.280Z,192
2016-12-31T08:32:50.982Z,204
2016-12-31T08:33:59.684Z,216
2016-12-31T08:35:08.385Z,224
2016-12-31T08:36:17.082Z,236
2016-12-31T08:37:25.809Z,248
2016-12-31T08:38:34.508Z,256
2016-12-31T08:39:43.207Z,264
2016-12-31T08:40:51.905Z,276
2016-12-31T08:42:00.604Z,292
2016-12-31T08:43:09.303Z,304
2016-12-31T08:44:18.003Z,312
2016-12-31T08:45:26.705Z,320
2016-12-31T08:46:35.401Z,328
2016-12-31T08:47:44.094Z,340
2016-12-31T08:48:52.793Z,348
2016-12-31T08:50:01.492Z,356
2016-12-31T08:51:10.194Z,364
2016-12-31T08:52:18.890Z,376
2016-12-31T08:53:27.599Z,384
2016-12-31T08:54:36.300Z,392
2016-12-31T08:55:45.025Z,396
2016-12-31T08:56:53.721Z,404
2016-12-31T08:58:02.423Z,408
2016-12-31T08:59:11.125Z,408
2016-12-31T09:00:19.824Z,416
2016-12-31T09:01:28.529Z,424
2016-12-31T09:02:37.226Z,436
2016-12-31T09:03:45.951Z,452
2016-12-31T09:04:54.648Z,468
2016-12-31T09:06:03.349Z,488
2016-12-31T09:07:12.045Z,508
2016-12-31T09:08:20.743Z,528
2016-12-31T09:09:29.439Z,548
2016-12-31T09:10:38.138Z,564
2016-12-31T09:11:46.836Z,580
2016-12-31T09:12:55.539Z,600
2016-12-31T09:14:04.247Z,620
2016-12-31T09:15:12.941Z,636
2016-12-31T09:16:21.642Z,652
2016-12-31T09:17:30.341Z,668
2016-12-31T09:18:39.039Z,688
2016-12-31T09:19:47.738Z,700
2016-12-31T09:20:56.437Z,712
2016-12-31T09:22:05.137Z,724
2016-12-31T09:23:13.837Z,740
2016-12-31T09:24:22.536Z,764
2016-12-31T09:25:31.236Z,792
2016-12-31T09:26:39.966Z,820
2016-12-31T09:27:48.665Z,812
2016-12-31T09:28:57.417Z,816
2016-12-31T09:30:06.517Z,824
2016-12-31T09:31:15.230Z,836
2016-12-31T09:32:23.926Z,840
2016-12-31T09:33:32.629Z,844
2016-12-31T09:34:41.327Z,836
2016-12-31T09:35:50.040Z,836
2016-12-31T09:36:58.740Z,832
2016-12-31T09:38:07.450Z,844
2016-12-31T09:39:16.156Z,856
2016-12-31T09:40:24.856Z,864
2016-12-31T09:41:33.557Z,864
2016-12-31T09:42:42.259Z,864
2016-12-31T09:43:50.957Z,872
2016-12-31T09:44:59.652Z,888
2016-12-31T09:46:08.382Z,892
2016-12-31T09:47:17.082Z,908
2016-12-31T09:48:25.779Z,924
2016-12-31T09:49:34.479Z,936
2016-12-31T09:50:43.177Z,940
2016-12-31T09:51:51.880Z,948
2016-12-31T09:53:00.586Z,940
2016-12-31T09:54:09.289Z,924
2016-12-31T09:55:17.987Z,920
2016-12-31T09:56:26.689Z,940
2016-12-31T09:57:35.395Z,964
2016-12-31T09:58:44.101Z,968
2016-12-31T09:59:52.797Z,976
2016-12-31T10:01:01.499Z,988
2016-12-31T10:02:10.197Z,984
2016-12-31T10:03:18.897Z,980
2016-12-31T10:04:27.606Z,992
2016-12-31T10:05:36.304Z,1000
2016-12-31T10:06:45.028Z,1028
2016-12-31T10:07:53.734Z,1056
2016-12-31T10:09:02.433Z,1096
2016-12-31T10:10:11.137Z,1132
2016-12-31T10:11:19.836Z,1188
2016-12-31T10:12:28.536Z,1244
2016-12-31T10:13:37.282Z,1260
2016-12-31T10:14:45.976Z,1272
2016-12-31T10:15:54.678Z,1268
2016-12-31T10:17:03.377Z,1260
2016-12-31T10:18:12.078Z,1268
2016-12-31T10:19:20.780Z,1284
2016-12-31T10:20:29.482Z,1308
2016-12-31T10:21:38.179Z,1340
2016-12-31T10:22:46.878Z,1376
2016-12-31T10:23:55.576Z,1408
2016-12-31T10:25:04.278Z,1428
2016-12-31T10:26:12.977Z,1432
2016-12-31T10:27:21.679Z,1404
2016-12-31T10:28:30.375Z,1380
2016-12-31T10:29:39.079Z,1356
2016-12-31T10:30:47.795Z,1340
2016-12-31T10:31:56.501Z,1352
2016-12-31T10:33:05.204Z,1384
2016-12-31T10:34:13.913Z,1392
2016-12-31T10:35:22.614Z,1392
2016-12-31T10:36:31.321Z,1388
2016-12-31T10:37:40.023Z,1380
2016-12-31T10:38:48.751Z,1364
2016-12-31T10:39:57.447Z,1360
2016-12-31T10:41:06.150Z,1360
2016-12-31T10:42:14.854Z,1380
2016-12-31T10:43:23.551Z,1428
2016-12-31T10:44:32.249Z,1484
2016-12-31T10:45:40.951Z,1544
2016-12-31T10:46:49.651Z,1608
2016-12-31T10:47:58.357Z,1672
2016-12-31T10:49:07.056Z,1756
2016-12-31T10:50:15.757Z,1808
2016-12-31T10:51:24.455Z,1864
2016-12-31T10:52:33.155Z,1908
2016-12-31T10:53:41.859Z,1928
2016-12-31T10:54:50.559Z,1948
2016-12-31T10:55:59.260Z,1976
2016-12-31T10:57:07.968Z,2024
2016-12-31T10:58:16.669Z,2076
2016-12-31T10:59:25.375Z,2112
2016-12-31T11:00:34.075Z,2128
2016-12-31T11:01:42.775Z,2172
2016-12-31T11:02:51.478Z,2240
2016-12-31T11:04:00.177Z,2276
2016-12-31T11:05:09.274Z,2260
2016-12-31T11:06:17.976Z,2236
2016-12-31T11:07:26.677Z,2192
2016-12-31T11:08:35.378Z,2020
2016-12-31T11:09:44.079Z,2124
2016-12-31T11:10:52.785Z,2104
2016-12-31T11:12:01.481Z,2160
2016-12-31T11:13:10.183Z,2124
2016-12-31T11:14:18.884Z,2112
2016-12-31T11:15:27.585Z,2204
2016-12-31T11:16:36.284Z,2236
2016-12-31T11:17:44.989Z,2272
2016-12-31T11:18:53.697Z,2344
2016-12-31T11:20:02.396Z,2344
2016-12-31T11:21:11.097Z,2336
2016-12-31T11:22:19.796Z,2316
2016-12-31T11:23:28.507Z,2340
2016-12-31T11:24:37.208Z,2348
2016-12-31T11:25:45.907Z,2384
2016-12-31T11:26:54.610Z,2452
2016-12-31T11:28:03.315Z,2536
2016-12-31T11:29:12.025Z,2568
2016-12-31T11:30:20.719Z,2712
2016-12-31T11:31:29.421Z,2760
2016-12-31T11:32:38.118Z,2760
2016-12-31T11:33:46.814Z,2804
2016-12-31T11:34:55.517Z,2864
2016-12-31T11:36:04.217Z,2916
2016-12-31T11:37:12.915Z,2976
2016-12-31T11:38:21.617Z,2984
2016-12-31T11:39:30.336Z,2924
2016-12-31T11:40:39.042Z,2960
2016-12-31T11:41:47.742Z,2888
2016-12-31T11:42:56.442Z,2864
2016-12-31T11:44:05.144Z,2924
2016-12-31T11:45:13.944Z,2920
2016-12-31T11:46:22.644Z,2868
2016-12-31T11:47:31.353Z,2864
2016-12-31T11:48:40.058Z,2912
2016-12-31T11:49:48.756Z,2992
2016-12-31T11:50:57.458Z,2908
2016-12-31T11:52:06.561Z,2844
2016-12-31T11:53:15.259Z,2944
2016-12-31T11:54:23.960Z,2964
2016-12-31T11:55:32.660Z,3040
2016-12-31T11:56:41.414Z,3032
2016-12-31T11:57:50.113Z,3016
2016-12-31T11:58:58.819Z,3020
2016-12-31T12:00:07.522Z,2956
2016-12-31T12:01:16.222Z,2924
2016-12-31T12:02:24.916Z,2940
2016-12-31T12:03:33.611Z,2880
2016-12-31T12:04:42.316Z,2788
2016-12-31T12:05:51.019Z,2760
2016-12-31T12:06:59.716Z,2772
2016-12-31T12:08:08.422Z,2780
2016-12-31T12:09:17.122Z,2800
2016-12-31T12:10:25.828Z,2804
2016-12-31T12:11:34.523Z,2792
2016-12-31T12:12:43.226Z,2768
2016-12-31T12:13:51.936Z,2744
2016-12-31T12:15:00.635Z,2720
2016-12-31T12:16:09.341Z,2692
2016-12-31T12:17:18.044Z,2648
2016-12-31T12:18:26.740Z,2612
2016-12-31T12:19:35.441Z,2548
2016-12-31T12:20:44.138Z,2512
2016-12-31T12:21:52.837Z,2484
2016-12-31T12:23:01.541Z,2472
2016-12-31T12:24:10.241Z,2444
2016-12-31T12:25:18.940Z,2412
2016-12-31T12:26:27.637Z,2404
2016-12-31T12:27:36.343Z,2400
2016-12-31T12:28:45.046Z,2368
2016-12-31T12:29:53.745Z,2320
2016-12-31T12:31:02.450Z,2312
2016-12-31T12:32:11.149Z,2292
2016-12-31T12:33:19.847Z,2248
2016-12-31T12:34:28.546Z,2208
2016-12-31T12:35:37.248Z,2180
2016-12-31T12:36:45.947Z,2168
2016-12-31T12:37:54.647Z,2172
2016-12-31T12:39:03.345Z,2168
2016-12-31T12:40:12.043Z,2148
2016-12-31T12:41:20.748Z,2136
2016-12-31T12:42:29.448Z,2136
2016-12-31T12:43:38.156Z,2140
2016-12-31T12:44:46.853Z,2108
2016-12-31T12:45:55.562Z,2084
2016-12-31T12:47:04.660Z,2028
2016-12-31T12:48:13.357Z,1952
2016-12-31T12:49:22.055Z,1908
2016-12-31T12:50:30.758Z,1868
2016-12-31T12:51:39.466Z,1796
2016-12-31T12:52:48.165Z,1744
2016-12-31T12:53:56.862Z,1720
2016-12-31T12:55:05.567Z,1656
2016-12-31T12:56:14.276Z,1612
2016-12-31T12:57:22.976Z,1568
2016-12-31T12:58:31.675Z,1512
2016-12-31T12:59:40.374Z,1440
2016-12-31T13:00:49.076Z,1384
2016-12-31T13:01:57.774Z,1360
2016-12-31T13:03:06.477Z,1352
2016-12-31T13:04:15.174Z,1324
2016-12-31T13:05:23.872Z,1300
2016-12-31T13:06:32.572Z,1296
2016-12-31T13:07:41.283Z,1300
2016-12-31T13:08:49.980Z,1304
2016-12-31T13:09:58.684Z,1284
2016-12-31T13:11:07.383Z,1256
2016-12-31T13:12:16.086Z,1228
2016-12-31T13:13:24.787Z,1200
2016-12-31T13:14:33.495Z,1176
2016-12-31T13:15:42.193Z,1132
2016-12-31T13:16:50.896Z,1084
2016-12-31T13:17:59.596Z,1056
2016-12-31T13:19:08.311Z,1040
2016-12-31T13:20:17.009Z,1024
2016-12-31T13:21:25.712Z,1020
2016-12-31T13:22:34.416Z,1008
2016-12-31T13:23:43.116Z,996
2016-12-31T13:24:51.819Z,980
2016-12-31T13:26:00.545Z,952
2016-12-31T13:27:09.242Z,924
2016-12-31T13:28:17.941Z,900
2016-12-31T13:29:26.640Z,876
2016-12-31T13:30:35.342Z,856
2016-12-31T13:31:44.043Z,832
2016-12-31T13:32:52.740Z,816
2016-12-31T13:34:01.441Z,796
2016-12-31T13:35:10.167Z,772
2016-12-31T13:36:18.871Z,748
2016-12-31T13:37:27.568Z,724
2016-12-31T13:38:36.277Z,696
2016-12-31T13:39:44.983Z,672
2016-12-31T13:40:53.707Z,648
2016-12-31T13:42:02.409Z,624
2016-12-31T13:43:11.112Z,604
2016-12-31T13:44:19.811Z,588
2016-12-31T13:45:28.864Z,580
2016-12-31T13:46:37.562Z,568
2016-12-31T13:47:46.265Z,560
2016-12-31T13:48:54.963Z,552
2016-12-31T13:50:03.662Z,536
2016-12-31T13:51:12.365Z,516
2016-12-31T13:52:21.063Z,496
2016-12-31T13:53:29.763Z,480
2016-12-31T13:54:38.466Z,460
2016-12-31T13:55:47.229Z,448
2016-12-31T13:56:55.932Z,432
2016-12-31T13:58:04.631Z,412
2016-12-31T13:59:13.335Z,396
2016-12-31T14:00:22.031Z,380
2016-12-31T14:01:30.735Z,360
2016-12-31T14:02:39.432Z,340
2016-12-31T14:03:48.139Z,320
2016-12-31T14:04:56.840Z,300
2016-12-31T14:06:05.541Z,284
2016-12-31T14:07:14.250Z,268
2016-12-31T14:08:22.952Z,252
2016-12-31T14:09:31.647Z,240
2016-12-31T14:10:40.351Z,224
2016-12-31T14:11:49.055Z,212
2016-12-31T14:12:57.752Z,196
2016-12-31T14:14:06.449Z,188
2016-12-31T14:15:15.151Z,176
2016-12-31T14:16:23.850Z,168
2016-12-31T14:17:32.552Z,156
2016-12-31T14:18:41.253Z,144
2016-12-31T14:19:49.955Z,140
2016-12-31T14:20:58.652Z,132
2016-12-31T14:22:07.350Z,124
2016-12-31T14:23:16.055Z,116
2016-12-31T14:24:25.152Z,108
2016-12-31T14:25:33.851Z,104
2016-12-31T14:26:42.558Z,96
2016-12-31T14:27:51.256Z,88
2016-12-31T14:28:59.953Z,84
2016-12-31T14:30:08.685Z,76
2016-12-31T14:31:17.388Z,76
2016-12-31T14:32:26.109Z,68
2016-12-31T14:33:34.807Z,60
2016-12-31T14:34:43.502Z,56
2016-12-31T14:35:52.201Z,52
2016-12-31T14:37:00.902Z,48
2016-12-31T14:38:09.601Z,44
2016-12-31T14:39:18.295Z,40
2016-12-31T14:40:26.996Z,32
2016-12-31T14:41:35.693Z,32
2016-12-31T14:42:44.396Z,28
2016-12-31T14:43:53.092Z,24
2016-12-31T14:45:01.800Z,24
2016-12-31T14:46:10.897Z,20
2016-12-31T14:47:19.630Z,20
2016-12-31T14:48:28.326Z,16
2016-12-31T14:49:37.034Z,12
2016-12-31T14:50:45.733Z,12
2016-12-31T14:51:54.433Z,8
2016-12-31T14:53:03.133Z,8
2016-12-31T14:54:11.845Z,8
2016-12-31T14:55:20.541Z,8
2016-12-31T14:56:29.266Z,8
2016-12-31T14:57:37.969Z,4
2016-12-31T14:58:46.675Z,4
2016-12-31T14:59:55.371Z,4
2016-12-31T15:01:04.069Z,4
2016-12-31T15:02:12.767Z,4
2016-12-31T15:03:21.465Z,0
2016-12-31T15:04:30.164Z,4
2016-12-31T15:05:38.863Z,4
2016-12-31T15:06:47.588Z,4
2016-12-31T15:07:56.288Z,0
2016-12-31T15:09:04.992Z,0
2016-12-31T15:10:13.691Z,0
2016-12-31T15:11:22.386Z,0
2016-12-31T15:12:31.079Z,0
2016-12-31T15:13:39.780Z,0
2016-12-31T15:14:48.484Z,0
2016-12-31T15:15:57.208Z,0
2016-12-31T15:17:05.902Z,0
2016-12-31T15:18:14.603Z,0
2016-12-31T15:19:23.304Z,0
2016-12-31T15:20:32.000Z,0
2016-12-31T15:21:40.709Z,0
2016-12-31T15:22:49.406Z,0
2016-12-31T15:23:58.105Z,0
2016-12-31T15:25:06.802Z,0
2016-12-31T15:26:15.502Z,0
2016-12-31T15:27:24.204Z,0
2016-12-31T15:28:32.901Z,0
2016-12-31T15:29:41.603Z,0
2016-12-31T15:30:50.315Z,0
2016-12-31T15:31:59.011Z,0
2016-12-31T15:33:08.111Z,0
2016-12-31T15:34:16.811Z,0
2016-12-31T15:35:25.509Z,0
2016-12-31T15:36:34.207Z,0
2016-12-31T15:37:42.908Z,0
2016-12-31T15:38:51.609Z,0
2016-12-31T15:40:00.306Z,0
2016-12-31T15:41:08.999Z,0
2016-12-31T15:42:17.699Z,0
2016-12-31T15:43:26.404Z,0
2016-12-31T15:44:35.525Z,0
2016-12-31T15:45:44.219Z,0
2016-12-31T15:46:52.918Z,0
2016-12-31T15:48:01.623Z,0
2016-12-31T15:49:10.338Z,0
2016-12-31T15:50:19.043Z,0
2016-12-31T15:51:27.740Z,0
2016-12-31T15:52:36.443Z,0
2016-12-31T15:53:45.141Z,0
2016-12-31T15:54:53.836Z,0
2016-12-31T15:56:02.534Z,0
2016-12-31T15:57:11.233Z,0
2016-12-31T15:58:19.930Z,0
2016-12-31T15:59:28.664Z,0
2016-12-31T16:00:37.361Z,0
2016-12-31T16:01:46.062Z,0
2016-12-31T16:02:54.754Z,0
2016-12-31T16:04:03.446Z,0
2016-12-31T16:05:12.143Z,0
2016-12-31T16:06:20.839Z,0
2016-12-31T16:07:29.534Z,0
2016-12-31T16:08:38.232Z,0
2016-12-31T16:09:46.928Z,0
2016-12-31T16:10:55.635Z,0
2016-12-31T16:12:04.335Z,0
2016-12-31T16:13:13.035Z,0
2016-12-31T16:14:21.735Z,0
2016-12-31T16:15:30.431Z,0
2016-12-31T16:16:39.129Z,0
2016-12-31T16:17:47.857Z,0
2016-12-31T16:18:56.552Z,0
2016-12-31T16:20:05.248Z,0